Snow/Ice From: 23-10-2018 22:46 Until: 24-10-2018 08:00 warning for: Snow/Ice Level: Yellow info button
suomi:
Liikennesää: Ajokeli on huono tienpintojen jäätymisen vuoksi.

svenska:
Trafikvädret: Väglaget är dåligt p.g.a. tillfrysning av vägytor.

english:
Traffic weather warning: Bad road conditions are expected because of ice-covered roads. 


Thunder radar more information blitzortung!


Löydät sääaseman tiedot myös:

European Weather Network

Finland Weather Exchange

Weather Underground

AWEKAS



Weather Underground säähistoriasivu

Päivittäin yhteenveto Joulukuu 8, 2017 Yksiköt:  Molemmat    Englantilaiset   Metriset
« Edellinen Päivä
Seuraava Päivä »
Päivittäin Viikoittain Kuukausittain Vuosittain Mukautettu
  Korkea: Matala: Keskiarvo:
Lämpötila: TemperatureF °F /  -17.8 °C 32.4 °F /  0.2 °C 34.8 °F /  1.6 °C
Kastepiste: DewpointF °F /  -17.8 °C 31.6 °F /  -0.2 °C 34.2 °F /  1.2 °C
Kosteus: Humidity % 92 % 96 %
Tuulen nopeus: WindSpeedMPH mph /  0 km/h - 1.6 mph /  2.6 km/h
Tuulenpuuska: WindSpeedGustMPH mph /  0 km/h - -
Tuuli:- - South
Ilmanpaine: PressureIn in /  0 hPa 28.99 in /  981.6 hPa -
Sade: 0.00 in /  0 mm    
Historical Graphs
 
 
Taulukkotiedot Joulukuu 8, 2017
Aika Lämpötila Kastepiste Ilmanpaine Tuuli Tuulen nopeus Tuulenpuuska Kosteus Sademäärä (tunneittain)
TemperatureF °F /  -17.8 °C DewpointF °F /  -17.8 °C PressureIn in /  0 hPa Calm     Humidity % HourlyPrecipIn in /  0 mm
00:00 32.4 °F /  0.2 °C 31.6 °F /  -0.2 °C 29.11 in /  985.7 hPa South 2.0 mph /  3.2 km/h 7.0 mph /  11.3 km/h 97 % 0.00 in /  0 mm
00:30 32.7 °F /  0.4 °C 32.0 °F /  0 °C 29.10 in /  985.3 hPa SSE 2.0 mph /  3.2 km/h 13.0 mph /  20.9 km/h 97 % 0.00 in /  0 mm
00:45 32.7 °F /  0.4 °C 32.0 °F /  0 °C 29.09 in /  985 hPa South 2.0 mph /  3.2 km/h 7.0 mph /  11.3 km/h 97 % 0.00 in /  0 mm
01:00 32.9 °F /  0.5 °C 32.2 °F /  0.1 °C 29.09 in /  985 hPa SSE 2.0 mph /  3.2 km/h 8.0 mph /  12.9 km/h 97 % 0.00 in /  0 mm
01:15 33.1 °F /  0.6 °C 32.2 °F /  0.1 °C 29.08 in /  984.6 hPa SSE 2.0 mph /  3.2 km/h 9.0 mph /  14.5 km/h 97 % 0.00 in /  0 mm
01:30 33.1 °F /  0.6 °C 32.4 °F /  0.2 °C 29.08 in /  984.6 hPa SSW 2.0 mph /  3.2 km/h 10.0 mph /  16.1 km/h 97 % 0.00 in /  0 mm
01:45 33.3 °F /  0.7 °C 32.5 °F /  0.3 °C 29.07 in /  984.3 hPa South 2.0 mph /  3.2 km/h 6.0 mph /  9.7 km/h 97 % 0.00 in /  0 mm
02:00 33.4 °F /  0.8 °C 32.7 °F /  0.4 °C 29.07 in /  984.3 hPa SSE 2.0 mph /  3.2 km/h 11.0 mph /  17.7 km/h 97 % 0.00 in /  0 mm
02:15 33.6 °F /  0.9 °C 32.9 °F /  0.5 °C 29.07 in /  984.3 hPa SSW 3.0 mph /  4.8 km/h 9.0 mph /  14.5 km/h 97 % 0.00 in /  0 mm
02:30 33.6 °F /  0.9 °C 32.9 °F /  0.5 °C 29.06 in /  984 hPa South 2.0 mph /  3.2 km/h 8.0 mph /  12.9 km/h 97 % 0.00 in /  0 mm
02:45 33.6 °F /  0.9 °C 33.3 °F /  0.7 °C 29.06 in /  984 hPa SSE 2.0 mph /  3.2 km/h 7.0 mph /  11.3 km/h 98 % 0.00 in /  0 mm
03:00 33.6 °F /  0.9 °C 32.9 °F /  0.5 °C 29.06 in /  984 hPa SSE 1.0 mph /  1.6 km/h 5.0 mph /  8 km/h 97 % 0.00 in /  0 mm
03:15 34.0 °F /  1.1 °C 33.4 °F /  0.8 °C 29.05 in /  983.6 hPa South 3.0 mph /  4.8 km/h 9.0 mph /  14.5 km/h 98 % 0.00 in /  0 mm
03:30 34.0 °F /  1.1 °C 33.4 °F /  0.8 °C 29.05 in /  983.6 hPa South 2.0 mph /  3.2 km/h 9.0 mph /  14.5 km/h 98 % 0.00 in /  0 mm
03:45 34.2 °F /  1.2 °C 33.6 °F /  0.9 °C 29.05 in /  983.6 hPa South 1.0 mph /  1.6 km/h 7.0 mph /  11.3 km/h 98 % 0.00 in /  0 mm
04:00 34.2 °F /  1.2 °C 33.6 °F /  0.9 °C 29.04 in /  983.3 hPa South 3.0 mph /  4.8 km/h 9.0 mph /  14.5 km/h 98 % 0.00 in /  0 mm
04:15 34.0 °F /  1.1 °C 33.4 °F /  0.8 °C 29.04 in /  983.3 hPa SSE 1.0 mph /  1.6 km/h 7.0 mph /  11.3 km/h 98 % 0.00 in /  0 mm
04:30 34.2 °F /  1.2 °C 33.6 °F /  0.9 °C 29.03 in /  983 hPa SSW 1.0 mph /  1.6 km/h 6.0 mph /  9.7 km/h 98 % 0.00 in /  0 mm
04:45 34.3 °F /  1.3 °C 34.0 °F /  1.1 °C 29.03 in /  983 hPa SSW 2.0 mph /  3.2 km/h 7.0 mph /  11.3 km/h 98 % 0.00 in /  0 mm
05:00 34.3 °F /  1.3 °C 33.8 °F /  1 °C 29.02 in /  982.6 hPa SSE 2.0 mph /  3.2 km/h 9.0 mph /  14.5 km/h 98 % 0.00 in /  0 mm
05:30 34.3 °F /  1.3 °C 34.0 °F /  1.1 °C 29.02 in /  982.6 hPa SSE 1.0 mph /  1.6 km/h 8.0 mph /  12.9 km/h 98 % 0.00 in /  0 mm
06:00 34.7 °F /  1.5 °C 34.2 °F /  1.2 °C 29.01 in /  982.3 hPa SSE 1.0 mph /  1.6 km/h 7.0 mph /  11.3 km/h 98 % 0.00 in /  0 mm
06:15 34.5 °F /  1.4 °C 34.2 °F /  1.2 °C 29.01 in /  982.3 hPa Calm   5.0 mph /  8 km/h 98 % 0.00 in /  0 mm
06:30 34.5 °F /  1.4 °C 34.2 °F /  1.2 °C 29.01 in /  982.3 hPa SSE 1.0 mph /  1.6 km/h 7.0 mph /  11.3 km/h 98 % 0.00 in /  0 mm
06:45 34.5 °F /  1.4 °C 34.2 °F /  1.2 °C 29.01 in /  982.3 hPa SSE 1.0 mph /  1.6 km/h 6.0 mph /  9.7 km/h 98 % 0.00 in /  0 mm
07:00 34.9 °F /  1.6 °C 34.3 °F /  1.3 °C 29.00 in /  981.9 hPa South 1.0 mph /  1.6 km/h 6.0 mph /  9.7 km/h 98 % 0.00 in /  0 mm
07:30 34.9 °F /  1.6 °C 34.3 °F /  1.3 °C 29.00 in /  981.9 hPa South 1.0 mph /  1.6 km/h 4.0 mph /  6.4 km/h 98 % 0.00 in /  0 mm
07:45 35.1 °F /  1.7 °C 34.5 °F /  1.4 °C 28.99 in /  981.6 hPa South 1.0 mph /  1.6 km/h 7.0 mph /  11.3 km/h 98 % 0.00 in /  0 mm
08:00 35.1 °F /  1.7 °C 34.5 °F /  1.4 °C 28.99 in /  981.6 hPa SSE 1.0 mph /  1.6 km/h 5.0 mph /  8 km/h 98 % 0.00 in /  0 mm
08:15 35.1 °F /  1.7 °C 34.5 °F /  1.4 °C 28.99 in /  981.6 hPa SSE 1.0 mph /  1.6 km/h 7.0 mph /  11.3 km/h 98 % 0.00 in /  0 mm
08:30 35.2 °F /  1.8 °C 34.7 °F /  1.5 °C 29.00 in /  981.9 hPa SSE 1.0 mph /  1.6 km/h 8.0 mph /  12.9 km/h 98 % 0.00 in /  0 mm
09:00 35.2 °F /  1.8 °C 34.9 °F /  1.6 °C 29.00 in /  981.9 hPa Calm   4.0 mph /  6.4 km/h 98 % 0.00 in /  0 mm
09:15 35.2 °F /  1.8 °C 34.9 °F /  1.6 °C 29.00 in /  981.9 hPa Calm   2.0 mph /  3.2 km/h 98 % 0.00 in /  0 mm
09:30 35.4 °F /  1.9 °C 35.1 °F /  1.7 °C 29.00 in /  981.9 hPa Calm   2.0 mph /  3.2 km/h 98 % 0.00 in /  0 mm
09:45 35.4 °F /  1.9 °C 34.9 °F /  1.6 °C 29.00 in /  981.9 hPa South 1.0 mph /  1.6 km/h 5.0 mph /  8 km/h 98 % 0.00 in /  0 mm
10:00 35.4 °F /  1.9 °C 35.1 °F /  1.7 °C 29.00 in /  981.9 hPa Calm   2.0 mph /  3.2 km/h 98 % 0.00 in /  0 mm
10:15 35.4 °F /  1.9 °C 35.1 °F /  1.7 °C 29.00 in /  981.9 hPa Calm   2.0 mph /  3.2 km/h 98 % 0.00 in /  0 mm
10:30 35.8 °F /  2.1 °C 35.2 °F /  1.8 °C 29.00 in /  981.9 hPa Calm   5.0 mph /  8 km/h 98 % 0.00 in /  0 mm
10:45 36.0 °F /  2.2 °C 35.4 °F /  1.9 °C 29.00 in /  981.9 hPa SSE 1.0 mph /  1.6 km/h 6.0 mph /  9.7 km/h 98 % 0.00 in /  0 mm
11:00 36.3 °F /  2.4 °C 35.8 °F /  2.1 °C 29.00 in /  981.9 hPa South 1.0 mph /  1.6 km/h 6.0 mph /  9.7 km/h 98 % 0.00 in /  0 mm
11:15 36.5 °F /  2.5 °C 36.3 °F /  2.4 °C 29.00 in /  981.9 hPa South 1.0 mph /  1.6 km/h 5.0 mph /  8 km/h 99 % 0.00 in /  0 mm
11:30 36.5 °F /  2.5 °C 36.3 °F /  2.4 °C 28.99 in /  981.6 hPa SSE 1.0 mph /  1.6 km/h 6.0 mph /  9.7 km/h 99 % 0.00 in /  0 mm
11:45 36.7 °F /  2.6 °C 36.1 °F /  2.3 °C 28.99 in /  981.6 hPa South 2.0 mph /  3.2 km/h 8.0 mph /  12.9 km/h 98 % 0.00 in /  0 mm
12:00 36.9 °F /  2.7 °C 36.3 °F /  2.4 °C 29.00 in /  981.9 hPa SSE 1.0 mph /  1.6 km/h 6.0 mph /  9.7 km/h 98 % 0.00 in /  0 mm
12:15 37.0 °F /  2.8 °C 36.7 °F /  2.6 °C 29.00 in /  981.9 hPa SSW 1.0 mph /  1.6 km/h 6.0 mph /  9.7 km/h 99 % 0.00 in /  0 mm
12:45 37.0 °F /  2.8 °C 36.7 °F /  2.6 °C 29.00 in /  981.9 hPa Calm   5.0 mph /  8 km/h 99 % 0.00 in /  0 mm
13:00 37.0 °F /  2.8 °C 36.5 °F /  2.5 °C 29.00 in /  981.9 hPa Calm   6.0 mph /  9.7 km/h 98 % 0.00 in /  0 mm
13:15 37.0 °F /  2.8 °C 36.5 °F /  2.5 °C 29.00 in /  981.9 hPa SSE 1.0 mph /  1.6 km/h 5.0 mph /  8 km/h 98 % 0.00 in /  0 mm
13:30 37.0 °F /  2.8 °C 36.5 °F /  2.5 °C 29.00 in /  981.9 hPa South 1.0 mph /  1.6 km/h 7.0 mph /  11.3 km/h 98 % 0.00 in /  0 mm
14:00 37.0 °F /  2.8 °C 36.5 °F /  2.5 °C 28.99 in /  981.6 hPa SSE 1.0 mph /  1.6 km/h 6.0 mph /  9.7 km/h 98 % 0.00 in /  0 mm
14:15 37.0 °F /  2.8 °C 36.5 °F /  2.5 °C 28.99 in /  981.6 hPa SSE 2.0 mph /  3.2 km/h 10.0 mph /  16.1 km/h 98 % 0.00 in /  0 mm
14:30 37.0 °F /  2.8 °C 36.5 °F /  2.5 °C 28.99 in /  981.6 hPa SSE 2.0 mph /  3.2 km/h 8.0 mph /  12.9 km/h 98 % 0.00 in /  0 mm
14:45 36.9 °F /  2.7 °C 36.3 °F /  2.4 °C 29.00 in /  981.9 hPa South 2.0 mph /  3.2 km/h 7.0 mph /  11.3 km/h 98 % 0.00 in /  0 mm
15:45 36.3 °F /  2.4 °C 36.0 °F /  2.2 °C 29.00 in /  981.9 hPa Calm   5.0 mph /  8 km/h 98 % 0.00 in /  0 mm
16:00 36.3 °F /  2.4 °C 36.0 °F /  2.2 °C 29.00 in /  981.9 hPa South 1.0 mph /  1.6 km/h 7.0 mph /  11.3 km/h 98 % 0.00 in /  0 mm
16:30 36.5 °F /  2.5 °C 36.0 °F /  2.2 °C 29.00 in /  981.9 hPa SSE 1.0 mph /  1.6 km/h 5.0 mph /  8 km/h 98 % 0.00 in /  0 mm
17:00 36.3 °F /  2.4 °C 36.0 °F /  2.2 °C 28.99 in /  981.6 hPa South 2.0 mph /  3.2 km/h 8.0 mph /  12.9 km/h 98 % 0.00 in /  0 mm
17:15 36.1 °F /  2.3 °C 35.8 °F /  2.1 °C 28.99 in /  981.6 hPa SSE 2.0 mph /  3.2 km/h 9.0 mph /  14.5 km/h 98 % 0.00 in /  0 mm
17:30 36.3 °F /  2.4 °C 35.8 °F /  2.1 °C 28.99 in /  981.6 hPa SSE 3.0 mph /  4.8 km/h 11.0 mph /  17.7 km/h 98 % 0.00 in /  0 mm
17:45 36.1 °F /  2.3 °C 35.8 °F /  2.1 °C 28.99 in /  981.6 hPa South 1.0 mph /  1.6 km/h 9.0 mph /  14.5 km/h 98 % 0.00 in /  0 mm
18:00 36.3 °F /  2.4 °C 35.8 °F /  2.1 °C 29.00 in /  981.9 hPa SSW 2.0 mph /  3.2 km/h 6.0 mph /  9.7 km/h 98 % 0.00 in /  0 mm
18:15 36.3 °F /  2.4 °C 36.0 °F /  2.2 °C 29.00 in /  981.9 hPa South 2.0 mph /  3.2 km/h 10.0 mph /  16.1 km/h 98 % 0.00 in /  0 mm
18:30 36.3 °F /  2.4 °C 35.6 °F /  2 °C 29.00 in /  981.9 hPa South 2.0 mph /  3.2 km/h 9.0 mph /  14.5 km/h 97 % 0.00 in /  0 mm
19:00 36.3 °F /  2.4 °C 35.2 °F /  1.8 °C 29.00 in /  981.9 hPa South 3.0 mph /  4.8 km/h 9.0 mph /  14.5 km/h 96 % 0.00 in /  0 mm
19:15 35.8 °F /  2.1 °C 34.7 °F /  1.5 °C 29.00 in /  981.9 hPa SSE 1.0 mph /  1.6 km/h 6.0 mph /  9.7 km/h 96 % 0.00 in /  0 mm
19:30 35.8 °F /  2.1 °C 34.9 °F /  1.6 °C 29.00 in /  981.9 hPa South 3.0 mph /  4.8 km/h 9.0 mph /  14.5 km/h 97 % 0.00 in /  0 mm
20:00 35.2 °F /  1.8 °C 34.3 °F /  1.3 °C 29.00 in /  981.9 hPa South 2.0 mph /  3.2 km/h 9.0 mph /  14.5 km/h 96 % 0.00 in /  0 mm
20:15 35.2 °F /  1.8 °C 34.2 °F /  1.2 °C 29.00 in /  981.9 hPa South 2.0 mph /  3.2 km/h 8.0 mph /  12.9 km/h 96 % 0.00 in /  0 mm
20:30 35.2 °F /  1.8 °C 34.2 °F /  1.2 °C 29.01 in /  982.3 hPa South 2.0 mph /  3.2 km/h 7.0 mph /  11.3 km/h 96 % 0.00 in /  0 mm
20:45 35.4 °F /  1.9 °C 34.5 °F /  1.4 °C 29.01 in /  982.3 hPa SSE 3.0 mph /  4.8 km/h 13.0 mph /  20.9 km/h 96 % 0.00 in /  0 mm
21:00 35.2 °F /  1.8 °C 34.3 °F /  1.3 °C 29.01 in /  982.3 hPa South 2.0 mph /  3.2 km/h 7.0 mph /  11.3 km/h 96 % 0.00 in /  0 mm
21:15 35.2 °F /  1.8 °C 34.3 °F /  1.3 °C 29.00 in /  981.9 hPa SSE 3.0 mph /  4.8 km/h 10.0 mph /  16.1 km/h 96 % 0.00 in /  0 mm
21:30 35.2 °F /  1.8 °C 34.2 °F /  1.2 °C 29.01 in /  982.3 hPa SSE 2.0 mph /  3.2 km/h 10.0 mph /  16.1 km/h 96 % 0.00 in /  0 mm
21:45 35.2 °F /  1.8 °C 34.2 °F /  1.2 °C 29.00 in /  981.9 hPa South 2.0 mph /  3.2 km/h 9.0 mph /  14.5 km/h 96 % 0.00 in /  0 mm
22:00 35.4 °F /  1.9 °C 34.3 °F /  1.3 °C 29.01 in /  982.3 hPa South 3.0 mph /  4.8 km/h 17.0 mph /  27.4 km/h 96 % 0.00 in /  0 mm
22:30 36.1 °F /  2.3 °C 34.7 °F /  1.5 °C 29.01 in /  982.3 hPa South 4.0 mph /  6.4 km/h 14.0 mph /  22.5 km/h 94 % 0.00 in /  0 mm
23:00 36.1 °F /  2.3 °C 34.3 °F /  1.3 °C 29.01 in /  982.3 hPa South 3.0 mph /  4.8 km/h 9.0 mph /  14.5 km/h 93 % 0.00 in /  0 mm
23:30 36.9 °F /  2.7 °C 34.7 °F /  1.5 °C 29.01 in /  982.3 hPa SSE 4.0 mph /  6.4 km/h 11.0 mph /  17.7 km/h 92 % 0.00 in /  0 mm
23:45 36.9 °F /  2.7 °C 35.1 °F /  1.7 °C 29.01 in /  982.3 hPa SSE 5.0 mph /  8 km/h 12.0 mph /  19.3 km/h 93 % 0.00 in /  0 mm
Esan sääasema
Terveisin Weather Underground - 2.75 mb

Alkuperäinen skripti  Jim McMurry - jmcmurry@mwt.net Sovitettu myös templatelle  Wim van der Kuil - Leuven-Template.eu

Laitteet joita käytämme:

Sääasema
Davis VP2

Sääasemaohjelma
Cumulus

Sääaseman tietokone
Asus EeePC

Palveluntarjoaja
Suncomet

Davis VP2

Cumulus

Asus EeePC

Suncomet